Time;durP1;ratioP1;P1;durP2;ratioP2;P2;SDS_P1;SDS_P2;PMS_P1;PMS_P2;Temp;Humidity;BMP_temperature;BMP_pressure;BME280_temperature;BME280_humidity;BME280_pressure;Samples;Min_cycle;Max_cycle;Signal;HPM_P1;HPM_P2
2022/08/13 00:00:35;;;;;;;12.98;9.48;;;;;;;22.72;71.17;100592.93;1755042;81;21059;-45
2022/08/13 00:03:02;;;;;;;12.15;8.80;;;;;;;22.67;71.05;100590.53;1741803;80;21055;-45
2022/08/13 00:05:29;;;;;;;12.95;8.68;;;;;;;22.65;71.00;100584.02;1739393;81;21139;-50
2022/08/13 00:07:55;;;;;;;9.83;7.92;;;;;;;22.62;70.93;100577.19;1746495;80;21126;-46
2022/08/13 00:10:32;;;;;;;12.18;8.70;;;;;;;22.63;70.85;100570.81;1738465;80;21090;-45
2022/08/13 00:13:03;;;;;;;10.45;8.35;;;;;;;22.65;70.60;100558.55;1738062;81;21058;-45
2022/08/13 00:15:37;;;;;;;11.12;8.53;;;;;;;22.66;70.42;100556.69;1746616;80;21094;-45
2022/08/13 00:18:10;;;;;;;10.75;8.50;;;;;;;22.62;69.92;100545.53;1731121;80;21100;-45
2022/08/13 00:20:42;;;;;;;15.88;7.45;;;;;;;22.59;69.57;100544.09;1746506;80;21714;-47
2022/08/13 00:23:13;;;;;;;10.20;7.15;;;;;;;22.57;69.28;100556.84;1740996;80;21063;-46
2022/08/13 00:25:41;;;;;;;10.18;7.65;;;;;;;22.58;68.79;100557.17;1727256;81;21070;-46
2022/08/13 00:28:07;;;;;;;13.22;7.90;;;;;;;22.58;68.79;100533.55;1727847;80;21093;-46
2022/08/13 00:30:35;;;;;;;12.88;7.33;;;;;;;22.55;68.91;100533.95;1752020;81;21140;-46
2022/08/13 00:33:10;;;;;;;8.93;6.90;;;;;;;22.56;68.92;100520.84;1743233;80;21051;-47
2022/08/13 00:35:36;;;;;;;9.80;7.03;;;;;;;22.56;68.83;100519.49;1736885;80;21042;-48
2022/08/13 00:38:06;;;;;;;8.15;5.67;;;;;;;22.55;68.75;100512.49;1734635;80;21070;-46
2022/08/13 00:40:33;;;;;;;10.25;6.85;;;;;;;22.56;68.42;100508.28;1747261;81;21052;-47
2022/08/13 00:43:02;;;;;;;10.08;7.37;;;;;;;22.59;68.63;100501.18;1741149;81;21146;-46
2022/08/13 00:45:31;;;;;;;10.70;7.25;;;;;;;22.58;68.78;100505.40;1734121;81;21573;-46
2022/08/13 00:50:44;;;;;;;8.98;6.65;;;;;;;22.57;68.74;100521.16;1741076;80;21078;-47
2022/08/13 00:53:17;;;;;;;9.60;6.65;;;;;;;22.58;68.45;100519.63;1739632;80;21556;-46
2022/08/13 00:55:46;;;;;;;13.48;6.67;;;;;;;22.58;67.88;100511.58;1727339;81;21319;-46
2022/08/13 00:58:16;;;;;;;14.10;7.30;;;;;;;22.59;67.53;100502.52;1741051;80;22294;-47
2022/08/13 01:00:41;;;;;;;10.00;7.12;;;;;;;22.59;67.73;100499.84;1731392;81;21121;-47
2022/08/13 01:03:08;;;;;;;11.93;7.28;;;;;;;22.57;67.68;100502.39;1730510;80;21036;-46
2022/08/13 01:05:36;;;;;;;11.38;6.85;;;;;;;22.55;67.62;100494.54;1745171;81;21114;-47
2022/08/13 01:08:03;;;;;;;12.15;5.90;;;;;;;22.53;67.79;100490.42;1739086;81;21982;-46
2022/08/13 01:10:30;;;;;;;8.78;6.17;;;;;;;22.52;67.79;100488.75;1745069;80;21026;-46
2022/08/13 01:12:57;;;;;;;12.03;6.78;;;;;;;22.57;67.88;100483.09;1727844;80;21569;-46
2022/08/13 01:15:23;;;;;;;10.55;6.97;;;;;;;22.61;67.94;100462.92;1754562;80;21584;-47
2022/08/13 01:17:53;;;;;;;9.03;6.42;;;;;;;22.63;68.06;100468.08;1739890;80;21054;-46
2022/08/13 01:20:21;;;;;;;10.55;6.53;;;;;;;22.64;68.07;100479.11;1731901;80;21330;-47
2022/08/13 01:22:52;;;;;;;10.58;7.22;;;;;;;22.59;67.37;100478.88;1728762;80;21427;-47
2022/08/13 01:25:21;;;;;;;9.58;6.62;;;;;;;22.51;67.44;100478.55;1730434;80;21058;-46
2022/08/13 01:27:52;;;;;;;10.63;6.50;;;;;;;22.45;67.46;100473.45;1736448;80;21570;-47
2022/08/13 01:30:20;;;;;;;10.20;6.67;;;;;;;22.47;67.18;100472.44;1751003;80;21102;-46
2022/08/13 01:32:47;;;;;;;10.72;6.58;;;;;;;22.48;67.15;100468.71;1754317;81;21089;-47
2022/08/13 01:35:15;;;;;;;9.63;6.62;;;;;;;22.44;67.07;100469.13;1750817;81;21070;-47
2022/08/13 01:37:42;;;;;;;8.85;6.12;;;;;;;22.42;67.14;100465.80;1736722;80;21479;-47
2022/08/13 01:40:10;;;;;;;13.35;6.62;;;;;;;22.40;67.13;100465.70;1725023;80;21126;-46
2022/08/13 01:42:44;;;;;;;11.80;6.17;;;;;;;22.38;67.14;100465.90;1715184;80;21557;-47
2022/08/13 01:45:12;;;;;;;10.58;6.30;;;;;;;22.36;66.98;100461.25;1713909;82;21109;-47
2022/08/13 01:50:30;;;;;;;10.48;6.65;;;;;;;22.25;67.05;100460.44;1737593;80;21098;-47
2022/08/13 01:53:07;;;;;;;9.40;6.05;;;;;;;22.17;67.40;100460.06;1720449;80;21036;-46
2022/08/13 01:55:46;;;;;;;9.50;6.35;;;;;;;22.13;67.80;100466.86;1716137;80;21118;-47
2022/08/13 01:58:19;;;;;;;9.18;5.80;;;;;;;22.08;67.72;100470.13;1735924;82;22720;-46
2022/08/13 02:00:48;;;;;;;9.33;6.37;;;;;;;22.05;68.05;100473.71;1717487;80;21043;-47
2022/08/13 02:03:17;;;;;;;9.10;6.65;;;;;;;21.97;68.33;100471.18;1713665;82;21075;-47
2022/08/13 02:05:44;;;;;;;14.35;7.67;;;;;;;21.89;68.76;100469.49;1727169;80;21052;-46
2022/08/13 02:08:12;;;;;;;12.78;6.30;;;;;;;21.79;69.41;100469.01;1726851;82;21031;-47
2022/08/13 02:10:43;;;;;;;12.45;6.53;;;;;;;21.73;70.05;100455.05;1722194;80;21158;-47
2022/08/13 02:13:13;;;;;;;9.55;6.45;;;;;;;21.71;69.95;100450.70;1717982;82;21106;-47
2022/08/13 02:15:40;;;;;;;11.38;6.67;;;;;;;21.67;70.23;100449.45;1740571;80;21055;-47
2022/08/13 02:18:19;;;;;;;10.80;6.17;;;;;;;21.59;70.51;100448.25;1712894;82;21514;-47
2022/08/13 02:20:52;;;;;;;11.28;6.33;;;;;;;21.57;70.37;100450.30;1733894;80;21561;-48
2022/08/13 02:23:23;;;;;;;10.20;6.70;;;;;;;21.58;70.46;100452.45;1741929;81;21123;-46
2022/08/13 02:25:50;;;;;;;11.22;7.03;;;;;;;21.59;70.11;100446.91;1735206;80;21032;-47
2022/08/13 02:28:21;;;;;;;8.85;6.42;;;;;;;21.61;70.17;100445.38;1730168;80;21102;-46
2022/08/13 02:30:55;;;;;;;9.78;6.25;;;;;;;21.59;70.21;100441.55;1733255;80;21059;-47
2022/08/13 02:33:21;;;;;;;8.75;6.15;;;;;;;21.55;69.55;100448.30;1736602;80;20992;-46
2022/08/13 02:35:48;;;;;;;10.25;5.53;;;;;;;21.54;69.80;100433.80;1739808;82;21538;-46
2022/08/13 02:38:16;;;;;;;11.25;6.35;;;;;;;21.57;69.85;100436.91;1741925;81;21063;-47
2022/08/13 02:43:31;;;;;;;9.53;6.40;;;;;;;21.62;69.83;100431.80;1734053;80;21522;-46
2022/08/13 02:46:00;;;;;;;9.73;6.22;;;;;;;21.61;69.73;100422.09;1737215;80;21133;-46
2022/08/13 02:48:29;;;;;;;10.63;6.10;;;;;;;21.59;69.55;100418.80;1717541;81;21091;-46
2022/08/13 02:50:56;;;;;;;10.75;5.80;;;;;;;21.60;69.31;100419.13;1725276;82;21648;-46
2022/08/13 02:53:24;;;;;;;10.82;6.62;;;;;;;21.65;69.39;100418.52;1715944;80;21055;-47
2022/08/13 02:55:51;;;;;;;9.33;6.28;;;;;;;21.72;69.23;100414.06;1722956;80;21033;-46
2022/08/13 02:58:18;;;;;;;11.95;6.55;;;;;;;21.77;69.15;100431.70;1736447;82;21142;-46
2022/08/13 03:00:49;;;;;;;9.35;6.75;;;;;;;21.79;69.14;100433.67;1717376;80;21122;-47
2022/08/13 03:03:19;;;;;;;10.03;6.35;;;;;;;21.78;69.06;100428.51;1719674;80;21035;-46
2022/08/13 03:05:46;;;;;;;9.13;5.83;;;;;;;21.79;68.60;100423.48;1712005;81;21110;-46
2022/08/13 03:08:12;;;;;;;8.53;5.53;;;;;;;21.81;68.36;100436.16;1740503;82;21055;-46
2022/08/13 03:10:40;;;;;;;8.88;5.58;;;;;;;21.83;68.32;100434.92;1723274;80;21024;-46
2022/08/13 03:13:17;;;;;;;12.00;6.50;;;;;;;21.85;68.26;100438.75;1731627;80;22032;-47
2022/08/13 03:15:44;;;;;;;10.20;6.28;;;;;;;21.81;68.16;100438.83;1725338;80;21016;-46
2022/08/13 03:18:11;;;;;;;13.83;5.55;;;;;;;21.77;67.83;100445.59;1721351;80;21114;-47
2022/08/13 03:20:40;;;;;;;10.03;6.00;;;;;;;21.71;68.13;100450.70;1736798;80;21095;-46
2022/08/13 03:23:07;;;;;;;9.98;6.22;;;;;;;21.71;68.29;100453.38;1713078;83;21055;-46
2022/08/13 03:25:34;;;;;;;13.30;6.62;;;;;;;21.75;68.20;100455.16;1715382;80;21292;-46
2022/08/13 03:28:01;;;;;;;12.35;6.75;;;;;;;21.77;68.17;100453.63;1739505;80;21039;-46
2022/08/13 03:30:28;;;;;;;11.22;5.92;;;;;;;21.77;68.26;100465.19;1727332;80;21070;-46
2022/08/13 03:32:54;;;;;;;11.15;6.35;;;;;;;21.77;68.37;100461.16;1729796;81;21098;-47
2022/08/13 03:35:23;;;;;;;11.33;5.83;;;;;;;21.76;68.56;100441.27;1729686;80;21017;-45
2022/08/13 03:37:57;;;;;;;9.70;5.87;;;;;;;21.74;68.25;100445.97;1719544;80;21951;-46
2022/08/13 03:40:24;;;;;;;9.90;6.10;;;;;;;21.71;68.49;100460.59;1719668;80;21046;-45
2022/08/13 03:42:51;;;;;;;11.10;6.70;;;;;;;21.70;68.71;100462.45;1731051;80;21051;-46
2022/08/13 03:45:19;;;;;;;10.13;5.10;;;;;;;21.72;68.92;100460.92;1716569;80;21044;-46
2022/08/13 03:47:46;;;;;;;15.78;6.35;;;;;;;21.73;69.23;100465.76;1712851;82;21102;-46
2022/08/13 03:50:13;;;;;;;11.05;6.05;;;;;;;21.77;69.48;100464.33;1715592;80;21118;-46
2022/08/13 03:52:41;;;;;;;11.20;6.67;;;;;;;21.80;69.71;100459.94;1727060;82;21008;-46
2022/08/13 03:55:11;;;;;;;11.78;6.08;;;;;;;21.78;69.46;100461.98;1737217;80;21104;-49
2022/08/13 03:57:40;;;;;;;9.70;6.37;;;;;;;21.77;69.38;100461.66;1718465;80;21582;-47
2022/08/13 04:00:11;;;;;;;8.98;5.70;;;;;;;21.71;69.60;100468.11;1725405;80;21067;-47
2022/08/13 04:02:41;;;;;;;10.93;6.15;;;;;;;21.70;69.41;100469.14;1743041;82;21065;-48
2022/08/13 04:05:17;;;;;;;14.28;6.03;;;;;;;21.73;69.73;100468.44;1724938;80;21024;-46
2022/08/13 04:07:39;;;;;;;11.22;6.10;;;;;;;21.75;69.94;100476.58;1721375;80;21055;-46
2022/08/13 04:10:08;;;;;;;9.73;6.20;;;;;;;21.80;69.70;100492.08;1722885;82;21074;-46
2022/08/13 04:12:36;;;;;;;11.93;6.22;;;;;;;21.81;69.61;100491.06;1732265;81;21062;-46
2022/08/13 04:15:03;;;;;;;9.45;5.80;;;;;;;21.79;69.78;100496.61;1715314;80;21138;-46
2022/08/13 04:17:30;;;;;;;10.05;5.75;;;;;;;21.79;69.96;100499.81;1713205;82;21016;-46
2022/08/13 04:19:57;;;;;;;9.08;6.20;;;;;;;21.81;69.90;100493.22;1723334;80;21415;-46
2022/08/13 04:22:27;;;;;;;10.25;6.37;;;;;;;21.85;69.81;100498.49;1739369;82;20981;-46
2022/08/13 04:24:53;;;;;;;10.32;6.15;;;;;;;21.85;69.99;100486.95;1735991;80;21384;-46
2022/08/13 04:27:20;;;;;;;9.88;6.85;;;;;;;21.85;70.27;100498.49;1722128;82;21657;-46
2022/08/13 04:29:46;;;;;;;11.45;6.65;;;;;;;21.85;70.37;100498.49;1737197;80;21051;-47
2022/08/13 04:32:13;;;;;;;12.43;6.35;;;;;;;21.82;70.58;100491.36;1730861;82;20996;-45
2022/08/13 04:34:40;;;;;;;10.82;6.97;;;;;;;21.78;70.88;100485.56;1733230;80;21491;-46
2022/08/13 04:37:09;;;;;;;9.03;5.28;;;;;;;21.79;70.85;100479.72;1736077;81;21058;-46
2022/08/13 04:39:36;;;;;;;13.08;6.28;;;;;;;21.81;70.73;100491.06;1726159;80;21078;-45
2022/08/13 04:42:07;;;;;;;9.30;6.20;;;;;;;21.78;71.14;100487.42;1745284;81;21128;-45
2022/08/13 04:44:34;;;;;;;10.48;6.28;;;;;;;21.75;71.35;100485.13;1745799;81;21150;-45
2022/08/13 04:47:01;;;;;;;13.40;5.92;;;;;;;21.69;71.52;100480.87;1752036;81;21490;-46
2022/08/13 04:49:28;;;;;;;11.30;6.30;;;;;;;21.70;71.49;100483.88;1752755;80;21351;-45
2022/08/13 04:51:54;;;;;;;12.70;6.75;;;;;;;21.69;71.61;100470.16;1748608;81;21800;-46
2022/08/13 04:54:20;;;;;;;10.32;7.55;;;;;;;21.69;71.62;100462.12;1745033;80;21545;-46
2022/08/13 04:56:47;;;;;;;12.40;6.50;;;;;;;21.68;71.75;100461.80;1751777;81;21058;-46
2022/08/13 04:59:13;;;;;;;12.65;6.15;;;;;;;21.64;72.09;100458.38;1745968;81;21082;-46
2022/08/13 05:01:40;;;;;;;10.45;6.20;;;;;;;21.65;72.19;100461.36;1746347;80;21659;-46
2022/08/13 05:04:07;;;;;;;12.45;5.60;;;;;;;21.69;72.16;100462.64;1751892;80;21567;-45
2022/08/13 05:06:33;;;;;;;9.75;6.40;;;;;;;21.73;72.13;100464.42;1753780;81;21113;-46
2022/08/13 05:09:01;;;;;;;11.35;7.10;;;;;;;21.78;71.89;100464.66;1752780;80;21062;-45
2022/08/13 05:11:28;;;;;;;14.55;7.20;;;;;;;21.83;71.96;100461.70;1737960;81;21463;-47
2022/08/13 05:13:55;;;;;;;11.33;6.25;;;;;;;21.84;71.77;100459.88;1748548;80;21093;-46
2022/08/13 05:16:22;;;;;;;11.97;6.00;;;;;;;21.87;71.91;100458.13;1734139;81;21462;-47
2022/08/13 05:18:54;;;;;;;9.88;6.15;;;;;;;21.90;71.62;100461.75;1731042;81;21089;-46
2022/08/13 05:21:22;;;;;;;13.30;6.55;;;;;;;21.93;71.15;100463.23;1743696;80;21065;-46
2022/08/13 05:23:53;;;;;;;11.70;7.20;;;;;;;21.90;71.21;100457.73;1730106;80;21075;-46
2022/08/13 05:26:21;;;;;;;12.15;6.83;;;;;;;21.87;71.18;100452.27;1749315;80;21074;-46
2022/08/13 05:28:50;;;;;;;15.13;6.72;;;;;;;21.85;71.30;100450.80;1748762;81;21079;-47
2022/08/13 05:31:19;;;;;;;11.22;6.45;;;;;;;21.84;71.54;100447.83;1738053;80;22484;-47
2022/08/13 05:33:46;;;;;;;9.23;6.65;;;;;;;21.83;71.41;100446.16;1741860;80;21458;-47
2022/08/13 05:36:13;;;;;;;9.13;5.87;;;;;;;21.86;71.17;100441.75;1751111;81;21074;-46
2022/08/13 05:38:40;;;;;;;10.55;6.92;;;;;;;21.84;71.33;100441.95;1753257;80;21047;-47
2022/08/13 05:41:08;;;;;;;12.93;7.25;;;;;;;21.87;71.69;100443.39;1745210;80;21578;-47
2022/08/13 05:43:37;;;;;;;16.00;7.50;;;;;;;21.92;71.63;100440.95;1750311;80;21537;-47
2022/08/13 05:46:08;;;;;;;9.85;6.60;;;;;;;21.91;71.62;100447.88;1733723;80;22229;-47
2022/08/13 05:48:41;;;;;;;12.25;6.80;;;;;;;21.96;71.55;100438.73;1743757;81;21007;-46
2022/08/13 05:51:10;;;;;;;11.90;6.87;;;;;;;22.08;71.54;100437.97;1731208;80;20999;-46
2022/08/13 05:53:37;;;;;;;11.83;6.80;;;;;;;22.16;71.55;100446.89;1738205;80;21204;-47
2022/08/13 05:56:06;;;;;;;10.75;6.80;;;;;;;22.20;71.50;100444.94;1731130;80;21094;-54
2022/08/13 05:58:34;;;;;;;11.50;6.80;;;;;;;22.24;71.87;100448.05;1728896;80;21019;-46
2022/08/13 06:03:46;;;;;;;10.53;7.03;;;;;;;22.38;70.74;100455.17;1725818;83;21062;-47
2022/08/13 06:06:16;;;;;;;10.08;6.22;;;;;;;22.44;70.55;100453.05;1742496;80;21127;-48
2022/08/13 06:08:43;;;;;;;11.45;7.03;;;;;;;22.51;70.62;100457.10;1727400;81;21085;-47
2022/08/13 06:11:17;;;;;;;13.68;7.97;;;;;;;22.59;70.83;100462.79;1738212;80;21020;-47
2022/08/13 06:13:46;;;;;;;10.75;7.22;;;;;;;22.68;70.74;100460.75;1745971;81;21380;-48
2022/08/13 06:16:13;;;;;;;9.90;6.40;;;;;;;22.74;70.30;100457.28;1748828;80;21059;-48
2022/08/13 06:18:44;;;;;;;11.05;6.42;;;;;;;22.80;69.93;100450.59;1750653;81;21123;-47
2022/08/13 06:21:13;;;;;;;12.63;7.65;;;;;;;22.85;69.64;100451.34;1737444;81;21102;-47
2022/08/13 06:23:41;;;;;;;12.70;7.65;;;;;;;22.96;69.75;100451.25;1748130;80;21117;-47
2022/08/13 06:26:09;;;;;;;11.05;7.15;;;;;;;23.09;69.67;100445.95;1745221;81;21120;-47
2022/08/13 06:28:37;;;;;;;15.25;8.45;;;;;;;23.17;68.85;100451.65;1745086;81;21065;-47
2022/08/13 06:31:06;;;;;;;12.05;7.40;;;;;;;23.16;68.66;100444.09;1750471;81;21744;-47
2022/08/13 06:33:35;;;;;;;11.08;6.50;;;;;;;23.25;68.32;100446.58;1751374;81;21302;-47
2022/08/13 06:36:06;;;;;;;12.50;7.95;;;;;;;23.35;68.31;100449.69;1745612;80;21542;-47
2022/08/13 06:38:36;;;;;;;9.80;7.65;;;;;;;23.47;67.92;100448.56;1750592;81;21065;-47
2022/08/13 06:41:05;;;;;;;10.28;6.70;;;;;;;23.55;67.69;100448.35;1742074;81;21118;-48
2022/08/13 06:43:35;;;;;;;12.98;7.35;;;;;;;23.54;67.05;100444.03;1734438;82;21409;-47
2022/08/13 06:46:03;;;;;;;15.32;8.05;;;;;;;23.53;67.33;100445.05;1734501;80;21150;-47
2022/08/13 06:48:29;;;;;;;12.55;7.62;;;;;;;23.57;67.40;100436.91;1715603;81;21464;-47
2022/08/13 06:50:56;;;;;;;10.00;7.75;;;;;;;23.67;67.49;100439.16;1725655;82;21003;-47
2022/08/13 06:53:22;;;;;;;14.53;8.13;;;;;;;23.81;67.44;100436.78;1725229;80;21150;-47
2022/08/13 06:55:51;;;;;;;12.60;8.70;;;;;;;23.89;67.09;100437.13;1737257;80;21739;-46
2022/08/13 07:00:41;;;;;;;11.40;8.28;;;;;;;24.03;66.61;100433.87;1809478;77;22490;-48
2022/08/13 07:03:10;;;;;;;10.72;7.80;;;;;;;24.10;66.19;100429.30;1759257;79;21023;-45
2022/08/13 07:05:41;;;;;;;10.85;7.40;;;;;;;24.13;65.83;100418.14;1755890;80;21140;-45
2022/08/13 07:08:11;;;;;;;11.22;7.33;;;;;;;24.24;65.91;100416.64;1773747;78;21570;-46
2022/08/13 07:10:51;;;;;;;13.13;7.12;;;;;;;24.30;65.08;100409.08;1776412;79;21537;-46
2022/08/13 07:13:18;;;;;;;11.25;7.65;;;;;;;24.35;65.26;100420.55;1768936;79;21068;-46
2022/08/13 07:15:51;;;;;;;11.25;8.38;;;;;;;24.37;64.76;100419.28;1764113;78;21701;-47
2022/08/13 07:18:17;;;;;;;15.45;7.83;;;;;;;24.43;64.54;100414.94;1772002;80;21097;-47
2022/08/13 07:20:44;;;;;;;10.58;7.70;;;;;;;24.48;64.58;100413.77;1772895;80;21042;-47
2022/08/13 07:23:11;;;;;;;13.40;7.58;;;;;;;24.55;64.06;100421.31;1776670;78;21119;-47
2022/08/13 07:25:38;;;;;;;12.07;8.30;;;;;;;24.56;63.62;100437.77;1711053;81;21128;-47
2022/08/13 07:28:05;;;;;;;11.50;7.47;;;;;;;24.50;63.20;100446.66;1774150;79;21192;-47
2022/08/13 07:30:32;;;;;;;13.03;7.85;;;;;;;24.38;62.62;100438.42;1777831;78;21166;-47
2022/08/13 07:32:59;;;;;;;20.55;9.10;;;;;;;24.21;63.22;100434.04;1774785;78;21040;-46
2022/08/13 07:35:28;;;;;;;15.10;8.95;;;;;;;24.04;65.84;100396.55;1784145;78;21148;-47
2022/08/13 07:37:54;;;;;;;11.60;7.95;;;;;;;23.81;67.18;100413.94;1770464;79;21048;-47
2022/08/13 07:40:20;;;;;;;13.00;7.35;;;;;;;23.60;68.08;100430.28;1782733;80;21066;-47
2022/08/13 07:42:48;;;;;;;13.60;9.15;;;;;;;23.47;68.48;100457.45;1773781;78;21208;-47
2022/08/13 07:45:23;;;;;;;14.65;8.38;;;;;;;23.39;68.96;100439.39;1771771;80;21645;-47
2022/08/13 07:47:54;;;;;;;13.80;9.38;;;;;;;23.29;68.93;100445.16;1736461;81;21113;-47
2022/08/13 07:50:18;;;;;;;11.80;8.03;;;;;;;23.20;68.92;100443.19;1731220;82;21072;-47
2022/08/13 07:52:45;;;;;;;14.98;7.65;;;;;;;23.16;68.86;100428.52;1727900;81;21542;-47
2022/08/13 07:55:11;;;;;;;12.82;7.83;;;;;;;23.12;68.96;100432.65;1733699;82;21138;-47
2022/08/13 07:57:41;;;;;;;12.33;7.37;;;;;;;23.11;69.41;100434.48;1731609;82;21058;-47
2022/08/13 08:00:21;;;;;;;14.13;8.58;;;;;;;23.12;69.41;100426.75;1693858;84;21551;-48
2022/08/13 08:02:39;;;;;;;12.23;8.33;;;;;;;23.10;69.73;100436.03;1690456;83;21094;-49
2022/08/13 08:05:12;;;;;;;13.53;8.03;;;;;;;23.05;69.86;100443.34;1693553;84;21078;-47
2022/08/13 08:07:37;;;;;;;11.20;8.43;;;;;;;23.04;69.87;100437.65;1695097;82;21128;-48
2022/08/13 08:10:06;;;;;;;13.28;8.85;;;;;;;23.04;70.01;100439.52;1694734;84;21466;-48
2022/08/13 08:12:35;;;;;;;15.13;9.50;;;;;;;23.05;70.36;100434.44;1692841;82;21110;-47
2022/08/13 08:15:07;;;;;;;14.10;8.40;;;;;;;23.07;70.58;100438.62;1684979;83;21573;-48
2022/08/13 08:17:33;;;;;;;13.30;8.15;;;;;;;23.01;70.35;100431.34;1693870;82;21101;-48
2022/08/13 08:20:00;;;;;;;12.82;9.00;;;;;;;22.92;70.58;100428.03;1686028;84;21953;-49
2022/08/13 08:22:27;;;;;;;12.80;8.70;;;;;;;22.93;70.51;100431.53;1693000;82;21534;-47
2022/08/13 08:24:54;;;;;;;11.33;8.18;;;;;;;22.94;70.45;100439.38;1707403;82;21027;-48
2022/08/13 08:27:20;;;;;;;13.03;9.28;;;;;;;23.00;70.59;100443.94;1702053;83;21105;-49
2022/08/13 08:29:48;;;;;;;12.00;8.05;;;;;;;23.09;70.79;100451.31;1713831;83;21126;-48
2022/08/13 08:32:15;;;;;;;14.30;9.60;;;;;;;23.17;70.78;100440.91;1706493;82;21255;-48
2022/08/13 08:34:47;;;;;;;11.73;8.50;;;;;;;23.26;70.65;100440.20;1710052;83;21469;-48
2022/08/13 08:42:35;;;;;;;12.20;8.70;;;;;;;23.33;69.89;100442.36;1707429;82;21573;-50
2022/08/13 08:42:36;;;;;;;11.95;9.75;;;;;;;23.39;69.43;100433.50;1723853;82;21109;-49
2022/08/13 08:45:08;;;;;;;16.12;9.43;;;;;;;23.37;69.21;100436.91;1716406;83;21237;-46
2022/08/13 08:47:35;;;;;;;12.10;8.75;;;;;;;23.34;69.64;100435.45;1717705;80;20996;-47
2022/08/13 08:50:02;;;;;;;18.10;9.55;;;;;;;23.34;69.63;100437.31;1714313;83;21011;-48
2022/08/13 08:55:15;;;;;;;15.65;9.90;;;;;;;23.38;69.21;100439.88;1718981;83;21114;-49
2022/08/13 08:57:44;;;;;;;13.58;9.28;;;;;;;23.35;69.56;100441.14;1716314;81;21104;-48
2022/08/13 09:00:15;;;;;;;17.67;9.73;;;;;;;23.36;69.53;100436.06;1747149;80;21135;-49
2022/08/13 09:02:46;;;;;;;11.83;9.23;;;;;;;23.34;69.77;100430.60;1755169;80;21448;-48
2022/08/13 09:05:13;;;;;;;15.83;9.45;;;;;;;23.32;70.15;100431.33;1758800;80;21004;-49
2022/08/13 09:07:41;;;;;;;11.75;8.93;;;;;;;23.30;70.47;100412.74;1757981;80;21080;-48
2022/08/13 09:10:12;;;;;;;13.10;8.90;;;;;;;23.36;70.37;100409.21;1758607;80;21809;-49
2022/08/13 09:12:42;;;;;;;13.80;9.50;;;;;;;23.37;70.59;100402.00;1758138;79;21020;-48
2022/08/13 09:15:21;;;;;;;13.05;9.30;;;;;;;23.41;70.74;100401.89;1764983;79;21096;-48
2022/08/13 09:17:48;;;;;;;13.25;10.43;;;;;;;23.43;70.89;100390.41;1762361;79;21115;-48
2022/08/13 09:20:17;;;;;;;15.50;10.60;;;;;;;23.43;71.15;100386.39;1766528;79;22272;-46
2022/08/13 09:22:47;;;;;;;14.50;10.10;;;;;;;23.46;71.13;100377.92;1778128;79;21768;-47
2022/08/13 09:25:15;;;;;;;14.90;10.60;;;;;;;23.48;71.31;100383.91;1760379;79;21499;-47
2022/08/13 09:27:43;;;;;;;15.05;10.23;;;;;;;23.54;71.21;100379.58;1761423;79;21012;-47
2022/08/13 09:30:12;;;;;;;17.02;11.25;;;;;;;23.58;70.84;100384.02;1762801;79;21068;-47
2022/08/13 09:32:39;;;;;;;16.85;11.40;;;;;;;23.58;71.09;100377.30;1762291;79;20999;-46
2022/08/13 09:35:07;;;;;;;14.78;11.10;;;;;;;23.56;71.39;100369.45;1757653;80;21092;-47
2022/08/13 09:37:34;;;;;;;17.12;11.50;;;;;;;23.59;71.35;100358.78;1755840;80;21037;-47
2022/08/13 09:40:06;;;;;;;14.63;11.43;;;;;;;23.64;71.60;100361.70;1760945;80;21058;-47
2022/08/13 09:42:37;;;;;;;15.45;11.65;;;;;;;23.70;71.56;100359.00;1753663;79;21134;-48
2022/08/13 09:45:07;;;;;;;14.05;10.40;;;;;;;23.76;71.92;100361.88;1755340;80;21046;-48
2022/08/13 09:47:34;;;;;;;15.05;11.73;;;;;;;23.80;71.89;100354.52;1771003;80;21094;-48
2022/08/13 09:50:01;;;;;;;15.48;11.22;;;;;;;23.87;71.90;100354.03;1773882;79;20996;-47
2022/08/13 09:52:27;;;;;;;14.28;11.38;;;;;;;23.92;72.23;100346.66;1764818;80;21042;-47
2022/08/13 09:54:57;;;;;;;14.65;10.88;;;;;;;24.05;72.30;100344.45;1754423;80;21118;-48
2022/08/13 09:57:23;;;;;;;12.82;10.55;;;;;;;24.22;71.83;100342.92;1763097;79;20984;-48
2022/08/13 09:59:50;;;;;;;15.83;10.90;;;;;;;24.38;71.45;100341.62;1763140;80;21234;-47
2022/08/13 10:02:16;;;;;;;17.82;12.05;;;;;;;24.52;71.19;100341.02;1765079;79;21117;-48
2022/08/13 10:04:43;;;;;;;12.88;11.25;;;;;;;24.69;70.54;100339.20;1770220;79;21027;-49
2022/08/13 10:07:12;;;;;;;17.48;12.00;;;;;;;24.85;70.65;100329.25;1767864;79;21069;-47
2022/08/13 10:09:41;;;;;;;14.23;11.18;;;;;;;25.02;70.56;100326.84;1765110;80;21471;-47
2022/08/13 10:12:09;;;;;;;20.35;11.10;;;;;;;25.23;70.68;100325.61;1759401;79;21125;-48
2022/08/13 10:14:36;;;;;;;14.98;10.45;;;;;;;25.44;69.75;100321.73;1761329;80;21090;-47
2022/08/13 10:17:04;;;;;;;13.05;10.18;;;;;;;25.64;68.41;100321.53;1768901;80;21123;-47
2022/08/13 10:19:31;;;;;;;12.25;9.80;;;;;;;25.86;67.06;100321.08;1762802;80;21535;-47
2022/08/13 10:21:58;;;;;;;13.83;10.18;;;;;;;26.10;66.50;100327.45;1765140;79;21477;-48
2022/08/13 10:24:25;;;;;;;14.33;9.53;;;;;;;26.34;65.59;100324.31;1763996;79;21196;-47
2022/08/13 10:26:51;;;;;;;12.53;9.48;;;;;;;26.53;63.62;100320.22;1773678;79;21038;-48
2022/08/13 10:29:17;;;;;;;13.13;10.10;;;;;;;26.71;62.03;100308.03;1778451;80;21004;-48
2022/08/13 10:31:44;;;;;;;11.35;8.45;;;;;;;26.86;61.39;100313.84;1771332;79;21062;-48
2022/08/13 10:34:10;;;;;;;15.53;9.40;;;;;;;27.04;59.94;100318.30;1752600;79;21113;-48
2022/08/13 10:36:37;;;;;;;12.00;8.85;;;;;;;27.22;58.80;100313.87;1749761;80;22163;-48
2022/08/13 10:39:05;;;;;;;18.45;10.38;;;;;;;27.36;58.12;100311.77;1764019;80;21027;-49
2022/08/13 10:41:31;;;;;;;11.73;9.23;;;;;;;27.51;57.18;100302.66;1763050;79;21062;-48
2022/08/13 10:43:59;;;;;;;13.90;9.98;;;;;;;27.64;56.44;100293.98;1772091;80;21180;-48
2022/08/13 10:46:28;;;;;;;14.55;9.05;;;;;;;27.73;56.05;100296.62;1764373;80;21546;-48
2022/08/13 10:48:56;;;;;;;11.20;9.43;;;;;;;27.78;55.48;100301.59;1752460;79;21093;-48
2022/08/13 10:51:23;;;;;;;12.07;9.58;;;;;;;27.83;55.47;100296.83;1760801;80;21098;-47
2022/08/13 10:53:55;;;;;;;12.37;9.50;;;;;;;27.86;55.88;100301.77;1776997;79;21553;-48
2022/08/13 10:56:22;;;;;;;12.45;9.30;;;;;;;27.91;54.63;100300.52;1758444;80;21151;-48
2022/08/13 10:58:50;;;;;;;10.63;8.80;;;;;;;27.97;54.56;100296.05;1767989;79;21049;-48
2022/08/13 11:01:20;;;;;;;11.63;9.20;;;;;;;28.02;54.04;100300.74;1760314;80;21103;-48
2022/08/13 11:03:45;;;;;;;12.05;9.18;;;;;;;28.05;53.79;100294.86;1757391;80;21527;-48
2022/08/13 11:06:12;;;;;;;12.43;8.78;;;;;;;28.07;53.71;100292.19;1762634;80;21519;-48
2022/08/13 11:08:39;;;;;;;16.20;9.60;;;;;;;28.08;53.25;100295.19;1762323;79;21126;-48
2022/08/13 11:11:09;;;;;;;13.90;9.78;;;;;;;28.09;53.18;100288.73;1764938;79;21090;-47
2022/08/13 11:13:39;;;;;;;13.58;9.50;;;;;;;28.09;53.22;100284.67;1762675;80;21075;-48
2022/08/13 11:16:52;;;;;;;13.48;10.35;;;;;;;28.11;53.15;100284.41;1761331;79;21040;-48
2022/08/13 11:18:35;;;;;;;13.50;9.80;;;;;;;28.09;52.77;100283.33;1759864;79;21125;-47
2022/08/13 11:21:02;;;;;;;11.40;8.80;;;;;;;28.11;52.96;100281.19;1755852;80;21099;-48
2022/08/13 11:23:30;;;;;;;12.40;9.00;;;;;;;28.17;53.13;100276.14;1758606;79;21021;-48
2022/08/13 11:25:56;;;;;;;14.15;10.30;;;;;;;28.29;53.34;100285.56;1762567;79;21240;-48
2022/08/13 11:28:23;;;;;;;14.35;9.05;;;;;;;28.41;52.02;100281.98;1761680;79;21037;-47
2022/08/13 11:30:51;;;;;;;12.05;9.05;;;;;;;28.47;51.25;100279.12;1764105;79;21090;-48
2022/08/13 11:33:19;;;;;;;12.40;9.68;;;;;;;28.52;51.29;100272.98;1764404;79;21478;-48
2022/08/13 11:35:45;;;;;;;13.78;9.35;;;;;;;28.59;51.24;100274.20;1756766;80;21120;-48
2022/08/13 11:38:14;;;;;;;13.28;9.80;;;;;;;28.66;50.90;100274.31;1763863;79;21129;-48
2022/08/13 11:40:53;;;;;;;12.45;9.55;;;;;;;28.70;50.78;100276.03;1754975;80;20991;-48